createdAt,value
2022-11-29T00:01:23.429Z,6.90
2022-11-29T00:03:51.624Z,6.94
2022-11-29T00:06:24.430Z,6.96
2022-11-29T00:08:51.674Z,6.97
2022-11-29T00:11:39.494Z,6.99
2022-11-29T00:14:08.340Z,6.95
2022-11-29T00:16:36.515Z,7.04
2022-11-29T00:19:04.166Z,7.01
2022-11-29T00:21:31.192Z,7.06
2022-11-29T00:23:59.480Z,7.08
2022-11-29T00:26:26.502Z,7.05
2022-11-29T00:28:53.545Z,7.08
2022-11-29T00:31:26.431Z,7.07
2022-11-29T00:33:53.788Z,7.05
2022-11-29T00:36:20.859Z,7.04
2022-11-29T00:38:48.008Z,7.03
2022-11-29T00:41:15.147Z,7.00
2022-11-29T00:43:42.425Z,6.98
2022-11-29T00:46:09.771Z,7.00
2022-11-29T00:48:37.311Z,6.99
2022-11-29T00:51:05.960Z,6.99
2022-11-29T00:53:34.416Z,6.95
2022-11-29T00:56:01.996Z,7.00
2022-11-29T00:58:29.130Z,6.96
2022-11-29T01:00:56.597Z,7.01
2022-11-29T01:03:24.018Z,6.98
2022-11-29T01:05:51.998Z,7.05
2022-11-29T01:08:19.322Z,7.04
2022-11-29T01:10:46.381Z,7.07
2022-11-29T01:13:13.433Z,7.08
2022-11-29T01:15:41.476Z,7.08
2022-11-29T01:18:08.766Z,7.05
2022-11-29T01:20:35.819Z,7.05
2022-11-29T01:23:02.907Z,7.06
2022-11-29T01:25:32.042Z,7.05
2022-11-29T01:27:59.136Z,7.03
2022-11-29T01:30:26.324Z,6.99
2022-11-29T01:32:53.421Z,7.03
2022-11-29T01:35:20.412Z,7.01
2022-11-29T01:37:47.456Z,7.00
2022-11-29T01:40:14.852Z,6.97
2022-11-29T01:42:41.899Z,6.94
2022-11-29T01:45:24.333Z,6.92
2022-11-29T01:47:57.182Z,6.91
2022-11-29T01:50:24.491Z,6.89
2022-11-29T01:52:52.075Z,6.90
2022-11-29T01:55:19.315Z,6.91
2022-11-29T01:57:47.066Z,6.89
2022-11-29T02:00:17.604Z,6.92
2022-11-29T02:02:51.796Z,6.93
2022-11-29T02:05:20.220Z,6.96
2022-11-29T02:07:51.814Z,6.96
2022-11-29T02:10:20.089Z,6.94
2022-11-29T02:12:55.949Z,6.97
2022-11-29T02:15:33.416Z,6.92
2022-11-29T02:18:06.497Z,6.89
2022-11-29T02:21:09.327Z,6.86
2022-11-29T02:24:03.945Z,6.85
2022-11-29T02:27:02.818Z,6.84
2022-11-29T02:29:45.486Z,6.83
2022-11-29T02:32:49.965Z,6.74
2022-11-29T02:35:23.595Z,6.69
2022-11-29T02:38:15.267Z,6.69
2022-11-29T02:40:57.146Z,6.68
2022-11-29T02:43:36.579Z,6.63
2022-11-29T02:46:17.708Z,6.66
2022-11-29T02:48:53.498Z,6.69
2022-11-29T02:51:34.729Z,6.70
2022-11-29T02:54:16.816Z,6.64
2022-11-29T02:56:56.918Z,6.60
2022-11-29T02:59:33.177Z,6.61
2022-11-29T03:02:28.532Z,6.65
2022-11-29T03:05:09.773Z,6.61
2022-11-29T03:08:06.105Z,6.65
2022-11-29T03:10:42.837Z,6.64
2022-11-29T03:14:02.405Z,6.65
2022-11-29T03:16:42.826Z,6.68
2022-11-29T03:19:28.940Z,6.64
2022-11-29T03:22:07.750Z,6.65
2022-11-29T03:24:48.459Z,6.65
2022-11-29T03:27:45.557Z,6.65
2022-11-29T03:30:14.515Z,6.64
2022-11-29T03:33:10.155Z,6.68
2022-11-29T03:35:47.627Z,6.71
2022-11-29T03:38:33.136Z,6.70
2022-11-29T03:41:15.734Z,6.67
2022-11-29T03:43:49.190Z,6.63
2022-11-29T03:46:25.529Z,6.57
2022-11-29T03:48:59.405Z,6.62
2022-11-29T03:51:31.593Z,6.60
2022-11-29T03:54:03.383Z,6.63
2022-11-29T03:56:37.263Z,6.63
2022-11-29T03:59:40.516Z,6.61
2022-11-29T04:05:06.294Z,6.65
2022-11-29T04:07:51.211Z,6.62
2022-11-29T04:10:39.784Z,6.60
2022-11-29T04:13:42.812Z,6.57
2022-11-29T04:16:18.871Z,6.59
2022-11-29T04:19:34.127Z,6.60
2022-11-29T04:22:25.585Z,6.55
2022-11-29T04:25:14.044Z,6.51
2022-11-29T04:28:04.868Z,6.44
2022-11-29T04:31:06.332Z,6.46
2022-11-29T04:34:10.231Z,6.46
2022-11-29T04:37:28.387Z,6.42
2022-11-29T04:40:22.043Z,6.28
2022-11-29T04:43:09.939Z,6.33
2022-11-29T04:46:01.925Z,6.31
2022-11-29T04:49:01.881Z,6.33
2022-11-29T04:52:17.050Z,6.30
2022-11-29T04:55:04.526Z,6.41
2022-11-29T04:57:44.838Z,6.43
2022-11-29T05:00:16.908Z,6.42
2022-11-29T05:03:11.290Z,6.43
2022-11-29T05:05:48.067Z,6.43
2022-11-29T05:08:42.967Z,6.47
2022-11-29T05:11:26.278Z,6.50
2022-11-29T05:14:36.174Z,6.51
2022-11-29T05:17:24.591Z,6.51
2022-11-29T05:20:13.276Z,6.51
2022-11-29T05:22:52.097Z,6.46
2022-11-29T05:25:22.133Z,6.44
2022-11-29T05:28:12.925Z,6.43
2022-11-29T05:31:23.245Z,6.43
2022-11-29T05:34:21.374Z,6.42
2022-11-29T05:37:36.370Z,6.45
2022-11-29T05:40:19.140Z,6.47
2022-11-29T05:42:51.684Z,6.51
2022-11-29T05:45:28.469Z,6.51
2022-11-29T05:48:05.685Z,6.53
2022-11-29T05:50:42.173Z,6.54
2022-11-29T05:53:21.196Z,6.55
2022-11-29T05:56:12.942Z,6.55
2022-11-29T05:59:09.314Z,6.57
2022-11-29T06:02:03.247Z,6.50
2022-11-29T06:05:08.296Z,6.58
2022-11-29T06:07:44.885Z,6.57
2022-11-29T06:10:18.271Z,6.58
2022-11-29T06:12:55.884Z,6.56
2022-11-29T06:16:02.257Z,6.55
2022-11-29T06:18:41.024Z,6.53
2022-11-29T06:21:17.935Z,6.54
2022-11-29T06:24:11.093Z,6.50
2022-11-29T06:26:40.804Z,6.44
2022-11-29T06:29:46.034Z,6.40
2022-11-29T06:32:40.840Z,6.43
2022-11-29T06:35:22.117Z,6.44
2022-11-29T06:37:51.905Z,6.43
2022-11-29T06:40:18.954Z,6.46
2022-11-29T06:42:46.031Z,6.46
2022-11-29T06:45:14.929Z,6.48
2022-11-29T06:48:06.794Z,6.49
2022-11-29T06:50:58.633Z,6.46
2022-11-29T06:53:39.140Z,6.44
2022-11-29T06:56:21.191Z,6.43
2022-11-29T06:59:08.558Z,6.35
2022-11-29T07:02:01.380Z,6.30
2022-11-29T07:04:45.743Z,6.27
2022-11-29T07:07:21.275Z,6.21
2022-11-29T07:09:50.870Z,6.21
2022-11-29T07:12:19.178Z,6.20
2022-11-29T07:14:47.189Z,6.17
2022-11-29T07:17:27.814Z,6.18
2022-11-29T07:20:18.209Z,6.13
2022-11-29T07:22:54.591Z,6.08
2022-11-29T07:25:26.839Z,6.08
2022-11-29T07:28:03.568Z,6.04
2022-11-29T07:31:07.131Z,6.00
2022-11-29T07:33:43.171Z,6.08
2022-11-29T07:36:29.139Z,6.11
2022-11-29T07:39:12.483Z,6.05
2022-11-29T07:41:46.423Z,6.08
2022-11-29T07:44:16.100Z,6.12
2022-11-29T07:46:43.300Z,6.13
2022-11-29T07:49:11.243Z,6.16
2022-11-29T07:51:38.392Z,6.18
2022-11-29T07:54:05.953Z,6.15
2022-11-29T07:56:33.296Z,6.19
2022-11-29T07:59:00.422Z,6.21
2022-11-29T08:01:28.088Z,6.20
2022-11-29T08:03:55.230Z,6.24
2022-11-29T08:06:26.195Z,6.26
2022-11-29T08:08:53.333Z,6.26
2022-11-29T08:11:20.406Z,6.27
2022-11-29T08:13:48.049Z,6.27
2022-11-29T08:16:19.376Z,6.19
2022-11-29T08:18:46.730Z,6.14
2022-11-29T08:21:18.170Z,6.18
2022-11-29T08:23:46.270Z,6.16
2022-11-29T08:26:13.864Z,6.12
2022-11-29T08:28:40.929Z,6.11
2022-11-29T08:31:11.016Z,6.01
2022-11-29T08:33:39.993Z,6.05
2022-11-29T08:36:09.803Z,6.04
2022-11-29T08:38:36.795Z,6.03
2022-11-29T08:41:10.060Z,6.06
2022-11-29T08:43:37.155Z,6.06
2022-11-29T08:46:04.773Z,6.04
2022-11-29T08:48:31.989Z,5.97
2022-11-29T08:50:58.982Z,6.02
2022-11-29T08:53:41.492Z,6.11
2022-11-29T08:57:04.249Z,6.12
2022-11-29T08:59:06.039Z,6.11
2022-11-29T09:01:33.145Z,6.10
2022-11-29T09:04:00.359Z,6.15
2022-11-29T09:06:32.699Z,6.22
2022-11-29T09:09:00.978Z,6.28
2022-11-29T09:11:30.571Z,6.34
2022-11-29T09:14:00.200Z,6.31
2022-11-29T09:16:29.945Z,6.38
2022-11-29T09:18:57.334Z,6.44
2022-11-29T09:21:29.333Z,6.51
2022-11-29T09:24:02.893Z,6.54
2022-11-29T09:26:31.439Z,6.61
2022-11-29T09:29:01.154Z,6.64
2022-11-29T09:31:29.881Z,6.64
2022-11-29T09:33:57.245Z,6.60
2022-11-29T09:36:28.524Z,6.59
2022-11-29T09:38:57.697Z,6.65
2022-11-29T09:41:54.229Z,6.71
2022-11-29T09:44:53.874Z,6.74
2022-11-29T09:47:49.865Z,6.71
2022-11-29T09:50:26.685Z,6.74
2022-11-29T09:53:26.580Z,6.73
2022-11-29T09:56:18.224Z,6.74
2022-11-29T09:58:51.393Z,6.75
2022-11-29T10:01:27.131Z,6.70
2022-11-29T10:04:00.763Z,6.72
2022-11-29T10:06:36.650Z,6.67
2022-11-29T10:09:33.705Z,6.74
2022-11-29T10:12:25.156Z,6.80
2022-11-29T10:14:58.048Z,6.73
2022-11-29T10:17:33.803Z,6.70
2022-11-29T10:20:12.775Z,6.55
2022-11-29T10:22:45.595Z,6.59
2022-11-29T10:25:22.889Z,6.66
2022-11-29T10:27:50.142Z,6.72
2022-11-29T10:30:18.168Z,6.69
2022-11-29T10:32:48.440Z,6.72
2022-11-29T10:35:18.812Z,6.81
2022-11-29T10:38:07.828Z,6.90
2022-11-29T10:40:36.236Z,6.99
2022-11-29T10:43:04.335Z,7.01
2022-11-29T10:45:50.688Z,7.02
2022-11-29T10:48:21.237Z,6.96
2022-11-29T10:50:50.365Z,6.91
2022-11-29T10:53:27.321Z,6.93
2022-11-29T10:56:05.811Z,6.95
2022-11-29T10:58:33.027Z,6.97
2022-11-29T11:01:02.327Z,6.94
2022-11-29T11:03:37.504Z,6.91
2022-11-29T11:06:20.838Z,6.97
2022-11-29T11:08:52.689Z,6.92
2022-11-29T11:11:31.896Z,6.92
2022-11-29T11:14:05.582Z,7.09
2022-11-29T11:16:37.454Z,7.16
2022-11-29T11:19:28.483Z,7.12
2022-11-29T11:22:05.535Z,7.06
2022-11-29T11:24:41.942Z,7.08
2022-11-29T11:27:09.073Z,7.20
2022-11-29T11:29:39.672Z,7.26
2022-11-29T11:32:18.595Z,7.37
2022-11-29T11:34:59.824Z,7.40
2022-11-29T11:37:32.712Z,7.28
2022-11-29T11:40:19.106Z,7.31
2022-11-29T11:42:46.690Z,7.35
2022-11-29T11:45:13.677Z,7.40
2022-11-29T11:47:46.644Z,7.37
2022-11-29T11:50:43.559Z,7.36
2022-11-29T11:53:36.498Z,7.48
2022-11-29T11:56:09.822Z,7.49
2022-11-29T11:58:58.320Z,7.46
2022-11-29T12:01:28.577Z,7.32
2022-11-29T12:04:20.533Z,7.40
2022-11-29T12:06:58.540Z,7.36
2022-11-29T12:09:44.567Z,7.44
2022-11-29T12:12:20.651Z,7.52
2022-11-29T12:14:58.467Z,7.58
2022-11-29T12:17:46.675Z,7.66
2022-11-29T12:20:25.420Z,7.57
2022-11-29T12:23:18.272Z,7.55
2022-11-29T12:26:05.694Z,7.52
2022-11-29T12:28:38.302Z,7.51
2022-11-29T12:31:34.018Z,7.49
2022-11-29T12:34:27.227Z,7.56
2022-11-29T12:37:04.485Z,7.57
2022-11-29T12:39:53.536Z,7.67
2022-11-29T12:42:48.174Z,7.68
2022-11-29T12:45:27.129Z,7.69
2022-11-29T12:48:08.915Z,7.70
2022-11-29T12:50:54.528Z,7.75
2022-11-29T12:53:32.945Z,7.72
2022-11-29T12:56:25.158Z,7.76
2022-11-29T12:59:21.526Z,7.74
2022-11-29T13:02:20.817Z,7.78
2022-11-29T13:05:17.161Z,7.73
2022-11-29T13:07:53.127Z,7.75
2022-11-29T13:10:54.027Z,7.69
2022-11-29T13:13:41.448Z,7.73
2022-11-29T13:16:31.045Z,7.70
2022-11-29T13:19:35.754Z,7.77
2022-11-29T13:22:10.061Z,7.79
2022-11-29T13:24:46.271Z,7.76
2022-11-29T13:27:25.566Z,7.80
2022-11-29T13:29:53.585Z,7.78
2022-11-29T13:32:28.330Z,7.87
2022-11-29T13:35:01.364Z,7.88
2022-11-29T13:37:44.952Z,7.89
2022-11-29T13:40:49.106Z,7.92
2022-11-29T13:43:30.427Z,7.92
2022-11-29T13:46:28.191Z,7.94
2022-11-29T13:48:55.612Z,7.95
2022-11-29T13:51:27.062Z,7.99
2022-11-29T13:54:01.138Z,8.05
2022-11-29T13:56:46.200Z,8.10
2022-11-29T13:59:22.517Z,8.15
2022-11-29T14:01:52.696Z,8.16
2022-11-29T14:04:37.900Z,8.14
2022-11-29T14:07:10.003Z,8.10
2022-11-29T14:10:02.191Z,8.13
2022-11-29T14:12:54.336Z,8.08
2022-11-29T14:15:28.237Z,8.03
2022-11-29T14:17:58.777Z,7.96
2022-11-29T14:20:28.088Z,7.92
2022-11-29T14:23:04.588Z,7.90
2022-11-29T14:25:51.749Z,7.87
2022-11-29T14:28:22.075Z,7.81
2022-11-29T14:31:02.745Z,7.78
2022-11-29T14:34:24.149Z,7.74
2022-11-29T14:37:04.436Z,7.70
2022-11-29T14:39:43.326Z,7.65
2022-11-29T14:42:17.041Z,7.60
2022-11-29T14:44:49.449Z,7.56
2022-11-29T14:47:26.364Z,7.55
2022-11-29T14:49:55.672Z,7.59
2022-11-29T14:52:37.068Z,7.58
2022-11-29T14:55:29.061Z,7.56
2022-11-29T14:58:05.850Z,7.50
2022-11-29T15:00:32.878Z,7.46
2022-11-29T15:03:08.740Z,7.40
2022-11-29T15:05:39.796Z,7.31
2022-11-29T15:08:16.945Z,7.30
2022-11-29T15:10:50.200Z,7.24
2022-11-29T15:13:28.002Z,7.19
2022-11-29T15:16:09.416Z,7.12
2022-11-29T15:19:13.104Z,7.06
2022-11-29T15:22:03.736Z,6.97
2022-11-29T15:24:30.752Z,6.93
2022-11-29T15:26:59.886Z,6.88
2022-11-29T15:29:28.357Z,6.81
2022-11-29T15:32:01.370Z,6.74
2022-11-29T15:34:34.949Z,6.69
2022-11-29T15:37:02.157Z,6.62
2022-11-29T15:39:33.900Z,6.62
2022-11-29T15:42:10.146Z,6.59
2022-11-29T15:44:37.244Z,6.48
2022-11-29T15:47:16.292Z,6.53
2022-11-29T15:49:43.413Z,6.51
2022-11-29T15:52:20.699Z,6.51
2022-11-29T15:54:55.425Z,6.53
2022-11-29T15:57:30.876Z,6.54
2022-11-29T16:00:04.461Z,6.56
2022-11-29T16:02:39.198Z,6.56
2022-11-29T16:05:42.031Z,6.57
2022-11-29T16:08:18.190Z,6.57
2022-11-29T16:10:52.865Z,6.56
2022-11-29T16:13:25.715Z,6.55
2022-11-29T16:16:16.247Z,6.53
2022-11-29T16:18:45.323Z,6.53
2022-11-29T16:21:30.527Z,6.54
2022-11-29T16:23:58.839Z,6.52
2022-11-29T16:26:34.366Z,6.53
2022-11-29T16:29:01.716Z,6.56
2022-11-29T16:31:37.226Z,6.57
2022-11-29T16:34:26.161Z,6.59
2022-11-29T16:37:07.987Z,6.59
2022-11-29T16:39:38.341Z,6.61
2022-11-29T16:42:18.282Z,6.62
2022-11-29T16:44:49.917Z,6.63
2022-11-29T16:47:22.202Z,6.63
2022-11-29T16:50:14.499Z,6.65
2022-11-29T16:52:41.900Z,6.60
2022-11-29T16:55:09.060Z,6.64
2022-11-29T16:57:37.061Z,6.65
2022-11-29T17:00:37.264Z,6.65
2022-11-29T17:03:04.779Z,6.69
2022-11-29T17:05:32.135Z,6.67
2022-11-29T17:08:00.180Z,6.68
2022-11-29T17:10:28.793Z,6.67
2022-11-29T17:12:55.944Z,6.67
2022-11-29T17:15:23.302Z,6.67
2022-11-29T17:17:50.822Z,6.61
2022-11-29T17:20:18.489Z,6.62
2022-11-29T17:22:45.606Z,6.67
2022-11-29T17:25:12.855Z,6.65
2022-11-29T17:27:39.897Z,6.67
2022-11-29T17:30:08.133Z,6.65
2022-11-29T17:32:35.882Z,6.65
2022-11-29T17:35:03.327Z,6.65
2022-11-29T17:37:31.148Z,6.69
2022-11-29T17:39:58.339Z,6.69
2022-11-29T17:42:25.542Z,6.72
2022-11-29T17:44:52.684Z,6.72
2022-11-29T17:47:19.787Z,6.73
2022-11-29T17:49:47.189Z,6.73
2022-11-29T17:52:14.523Z,6.78
2022-11-29T17:54:41.987Z,6.72
2022-11-29T17:57:09.174Z,6.75
2022-11-29T17:59:36.223Z,6.69
2022-11-29T18:02:04.689Z,6.77
2022-11-29T18:04:31.746Z,6.79
2022-11-29T18:06:59.073Z,6.79
2022-11-29T18:09:26.066Z,6.78
2022-11-29T18:11:53.168Z,6.78
2022-11-29T18:14:23.721Z,6.79
2022-11-29T18:16:52.044Z,6.79
2022-11-29T18:19:21.953Z,6.83
2022-11-29T18:21:50.706Z,6.82
2022-11-29T18:24:19.100Z,6.80
2022-11-29T18:26:47.946Z,6.82
2022-11-29T18:29:15.615Z,6.81
2022-11-29T18:31:44.952Z,6.84
2022-11-29T18:34:14.100Z,6.83
2022-11-29T18:36:44.434Z,6.84
2022-11-29T18:39:14.476Z,6.80
2022-11-29T18:41:48.835Z,6.74
2022-11-29T18:44:18.320Z,6.76
2022-11-29T18:46:46.133Z,6.80
2022-11-29T18:49:18.313Z,6.81
2022-11-29T18:51:47.104Z,6.80
2022-11-29T18:54:18.812Z,6.82
2022-11-29T18:56:46.492Z,6.81
2022-11-29T18:59:19.142Z,6.82
2022-11-29T19:01:48.667Z,6.80
2022-11-29T19:04:18.399Z,6.81
2022-11-29T19:06:45.735Z,6.81
2022-11-29T19:09:18.407Z,6.82
2022-11-29T19:11:45.561Z,6.83
2022-11-29T19:14:13.108Z,6.87
2022-11-29T19:16:43.409Z,6.86
2022-11-29T19:19:10.772Z,6.85
2022-11-29T19:21:39.865Z,6.90
2022-11-29T19:24:15.676Z,6.92
2022-11-29T19:26:44.927Z,6.91
2022-11-29T19:29:13.833Z,6.89
2022-11-29T19:31:42.699Z,6.91
2022-11-29T19:34:10.560Z,6.90
2022-11-29T19:36:43.053Z,6.92
2022-11-29T19:39:12.943Z,6.95
2022-11-29T19:41:42.981Z,6.97
2022-11-29T19:44:10.389Z,6.98
2022-11-29T19:46:40.969Z,6.99
2022-11-29T19:49:08.901Z,7.01
2022-11-29T19:51:37.097Z,7.02
2022-11-29T19:54:07.162Z,6.97
2022-11-29T19:56:34.645Z,7.01
2022-11-29T19:59:01.842Z,7.01
2022-11-29T20:01:37.875Z,7.04
2022-11-29T20:04:08.695Z,7.02
2022-11-29T20:06:36.149Z,7.02
2022-11-29T20:09:03.475Z,7.02
2022-11-29T20:11:30.819Z,7.03
2022-11-29T20:14:00.241Z,7.02
2022-11-29T20:16:28.768Z,6.99
2022-11-29T20:18:56.616Z,6.98
2022-11-29T20:21:26.241Z,6.99
2022-11-29T20:23:58.735Z,6.96
2022-11-29T20:26:27.583Z,6.99
2022-11-29T20:28:55.320Z,6.96
2022-11-29T20:31:23.425Z,6.97
2022-11-29T20:33:52.816Z,6.94
2022-11-29T20:37:07.333Z,7.00
2022-11-29T20:39:34.392Z,7.00
2022-11-29T20:42:29.428Z,7.03
2022-11-29T20:44:59.114Z,7.07
2022-11-29T20:47:32.505Z,7.06
2022-11-29T20:49:59.766Z,7.15
2022-11-29T20:52:29.480Z,7.21
2022-11-29T20:54:56.472Z,7.21
2022-11-29T20:57:24.028Z,7.17
2022-11-29T20:59:51.093Z,7.21
2022-11-29T21:02:22.556Z,7.28
2022-11-29T21:04:49.587Z,7.27
2022-11-29T21:07:17.163Z,7.24
2022-11-29T21:09:44.284Z,7.26
2022-11-29T21:12:11.876Z,7.22
2022-11-29T21:14:39.177Z,7.16
2022-11-29T21:17:07.785Z,7.21
2022-11-29T21:19:35.089Z,7.16
2022-11-29T21:22:10.726Z,7.14
2022-11-29T21:24:56.367Z,7.16
2022-11-29T21:27:34.329Z,7.13
2022-11-29T21:30:05.634Z,7.15
2022-11-29T21:32:33.173Z,7.12
2022-11-29T21:35:00.201Z,7.07
2022-11-29T21:37:30.790Z,7.18
2022-11-29T21:39:58.577Z,7.18
2022-11-29T21:42:25.651Z,7.16
2022-11-29T21:44:52.766Z,7.17
2022-11-29T21:47:19.798Z,7.16
2022-11-29T21:49:47.393Z,7.12
2022-11-29T21:52:19.197Z,7.19
2022-11-29T21:54:49.696Z,7.15
2022-11-29T21:57:17.018Z,7.14
2022-11-29T21:59:44.160Z,7.15
2022-11-29T22:02:11.350Z,7.16
2022-11-29T22:04:38.616Z,7.16
2022-11-29T22:07:05.897Z,7.16
2022-11-29T22:09:33.025Z,7.17
2022-11-29T22:12:00.180Z,7.17
2022-11-29T22:14:27.315Z,7.19
2022-11-29T22:16:59.706Z,7.18
2022-11-29T22:19:32.095Z,7.20
2022-11-29T22:22:03.403Z,7.10
2022-11-29T22:24:36.170Z,7.17
2022-11-29T22:27:03.772Z,7.18
2022-11-29T22:29:31.009Z,7.17
2022-11-29T22:31:59.422Z,7.17
2022-11-29T22:34:27.416Z,7.14
2022-11-29T22:36:55.398Z,7.12
2022-11-29T22:39:23.096Z,7.11
2022-11-29T22:41:54.315Z,7.10
2022-11-29T22:44:23.790Z,7.10
2022-11-29T22:46:51.218Z,7.11
2022-11-29T22:49:18.573Z,7.11
2022-11-29T22:51:45.627Z,7.04
2022-11-29T22:54:15.455Z,7.09
2022-11-29T22:56:43.845Z,7.07
2022-11-29T22:59:10.859Z,7.08
2022-11-29T23:01:40.636Z,7.05
2022-11-29T23:04:09.162Z,7.02
2022-11-29T23:06:41.729Z,6.97
2022-11-29T23:09:15.131Z,6.96
2022-11-29T23:11:44.237Z,6.91
2022-11-29T23:14:12.190Z,6.91
2022-11-29T23:16:40.696Z,6.91
2022-11-29T23:19:07.855Z,6.91
2022-11-29T23:21:37.661Z,6.92
2022-11-29T23:24:06.069Z,6.89
2022-11-29T23:26:39.701Z,6.88
2022-11-29T23:29:09.967Z,6.86
2022-11-29T23:31:37.197Z,6.87
2022-11-29T23:34:04.573Z,6.89
2022-11-29T23:36:32.132Z,6.88
2022-11-29T23:38:59.229Z,6.89
2022-11-29T23:41:26.298Z,6.88
2022-11-29T23:43:53.352Z,6.87
2022-11-29T23:46:23.501Z,6.80
2022-11-29T23:48:51.870Z,6.81
2022-11-29T23:51:19.964Z,6.80
2022-11-29T23:53:52.053Z,6.76
2022-11-29T23:56:19.951Z,6.78
2022-11-29T23:58:47.444Z,6.77
